sensor_id;sensor_type;location;lat;lon;timestamp;pressure;altitude;pressure_sealevel;temperature;humidity
31357;BME280;60001;48.404;11.738;2022-08-19T00:00:56;95748.97;;;20.34;85.78
31357;BME280;60001;48.404;11.738;2022-08-19T00:02:28;95760.47;;;20.34;86.28
31357;BME280;60001;48.404;11.738;2022-08-19T00:04:03;95767.84;;;20.37;85.92
31357;BME280;60001;48.404;11.738;2022-08-19T00:05:34;95778.25;;;20.39;85.79
31357;BME280;60001;48.404;11.738;2022-08-19T00:07:07;95784.06;;;20.41;85.95
31357;BME280;60001;48.404;11.738;2022-08-19T00:08:39;95785.97;;;20.40;85.51
31357;BME280;60001;48.404;11.738;2022-08-19T00:10:12;95783.75;;;20.42;85.68
31357;BME280;60001;48.404;11.738;2022-08-19T00:11:45;95785.97;;;20.40;84.91
31357;BME280;60001;48.404;11.738;2022-08-19T00:13:18;95793.34;;;20.43;85.00
31357;BME280;60001;48.404;11.738;2022-08-19T00:14:50;95793.88;;;20.45;85.17
31357;BME280;60001;48.404;11.738;2022-08-19T00:16:21;95794.66;;;20.46;84.80
31357;BME280;60001;48.404;11.738;2022-08-19T00:17:53;95789.72;;;20.48;84.79
31357;BME280;60001;48.404;11.738;2022-08-19T00:19:25;95795.44;;;20.46;84.53
31357;BME280;60001;48.404;11.738;2022-08-19T00:20:58;95794.31;;;20.47;84.57
31357;BME280;60001;48.404;11.738;2022-08-19T00:22:29;95795.09;;;20.48;84.24
31357;BME280;60001;48.404;11.738;2022-08-19T00:24:02;95788.94;;;20.47;84.26
31357;BME280;60001;48.404;11.738;2022-08-19T00:25:34;95794.66;;;20.46;84.30
31357;BME280;60001;48.404;11.738;2022-08-19T00:27:06;95792.28;;;20.44;83.66
31357;BME280;60001;48.404;11.738;2022-08-19T00:28:40;95798.44;;;20.45;83.73
31357;BME280;60001;48.404;11.738;2022-08-19T00:30:12;95794.66;;;20.46;84.45
31357;BME280;60001;48.404;11.738;2022-08-19T00:31:46;95790.06;;;20.46;83.50
31357;BME280;60001;48.404;11.738;2022-08-19T00:33:17;95782.81;;;20.47;83.60
31357;BME280;60001;48.404;11.738;2022-08-19T00:34:48;95776.31;;;20.48;83.49
31357;BME280;60001;48.404;11.738;2022-08-19T00:36:19;95775.88;;;20.46;83.92
31357;BME280;60001;48.404;11.738;2022-08-19T00:37:51;95767.03;;;20.45;83.33
31357;BME280;60001;48.404;11.738;2022-08-19T00:39:23;95758.50;;;20.43;83.88
31357;BME280;60001;48.404;11.738;2022-08-19T00:40:55;95748.09;;;20.42;83.43
31357;BME280;60001;48.404;11.738;2022-08-19T00:42:27;95754.91;;;20.39;83.20
31357;BME280;60001;48.404;11.738;2022-08-19T00:44:05;95749.88;;;20.38;83.41
31357;BME280;60001;48.404;11.738;2022-08-19T00:45:36;95748.28;;;20.37;83.60
31357;BME280;60001;48.404;11.738;2022-08-19T00:47:08;95753.34;;;20.38;83.68
31357;BME280;60001;48.404;11.738;2022-08-19T00:48:39;95749.56;;;20.39;83.57
31357;BME280;60001;48.404;11.738;2022-08-19T00:50:14;95754.91;;;20.39;83.89
31357;BME280;60001;48.404;11.738;2022-08-19T00:51:53;95754.59;;;20.41;83.36
31357;BME280;60001;48.404;11.738;2022-08-19T00:53:28;95755.69;;;20.40;83.74
31357;BME280;60001;48.404;11.738;2022-08-19T00:55:03;95757.59;;;20.39;83.72
31357;BME280;60001;48.404;11.738;2022-08-19T00:56:37;95757.44;;;20.36;84.03
31357;BME280;60001;48.404;11.738;2022-08-19T00:58:14;95751.75;;;20.37;83.94
31357;BME280;60001;48.404;11.738;2022-08-19T00:59:52;95749.06;;;20.37;83.58
31357;BME280;60001;48.404;11.738;2022-08-19T01:01:25;95741.38;;;20.36;84.06
31357;BME280;60001;48.404;11.738;2022-08-19T01:02:57;95736.34;;;20.34;83.71
31357;BME280;60001;48.404;11.738;2022-08-19T01:04:29;95736.78;;;20.36;83.92
31357;BME280;60001;48.404;11.738;2022-08-19T01:06:01;95733.19;;;20.32;83.20
31357;BME280;60001;48.404;11.738;2022-08-19T01:07:33;95736.00;;;20.36;83.37
31357;BME280;60001;48.404;11.738;2022-08-19T01:09:04;95740.56;;;20.35;83.31
31357;BME280;60001;48.404;11.738;2022-08-19T01:10:40;95757.94;;;20.38;83.06
31357;BME280;60001;48.404;11.738;2022-08-19T01:12:13;95755.25;;;20.38;83.32
31357;BME280;60001;48.404;11.738;2022-08-19T01:13:45;95761.41;;;20.38;83.06
31357;BME280;60001;48.404;11.738;2022-08-19T01:15:23;95768.31;;;20.39;83.57
31357;BME280;60001;48.404;11.738;2022-08-19T01:16:56;95768.31;;;20.39;83.59
31357;BME280;60001;48.404;11.738;2022-08-19T01:18:32;95765.31;;;20.41;83.10
31357;BME280;60001;48.404;11.738;2022-08-19T01:20:10;95766.88;;;20.42;83.20
31357;BME280;60001;48.404;11.738;2022-08-19T01:21:50;95764.97;;;20.42;83.07
31357;BME280;60001;48.404;11.738;2022-08-19T01:23:25;95746.97;;;20.43;83.56
31357;BME280;60001;48.404;11.738;2022-08-19T01:25:14;95749.22;;;20.41;82.99
31357;BME280;60001;48.404;11.738;2022-08-19T01:26:48;95757.72;;;20.43;82.83
31357;BME280;60001;48.404;11.738;2022-08-19T01:28:23;95753.66;;;20.37;83.01
31357;BME280;60001;48.404;11.738;2022-08-19T01:29:55;95762.97;;;20.39;82.63
31357;BME280;60001;48.404;11.738;2022-08-19T01:31:29;95762.47;;;20.37;83.40
31357;BME280;60001;48.404;11.738;2022-08-19T01:33:02;95762.03;;;20.35;83.24
31357;BME280;60001;48.404;11.738;2022-08-19T01:34:36;95773.53;;;20.36;83.50
31357;BME280;60001;48.404;11.738;2022-08-19T01:36:16;95772.31;;;20.33;83.63
31357;BME280;60001;48.404;11.738;2022-08-19T01:37:55;95781.13;;;20.34;83.46
31357;BME280;60001;48.404;11.738;2022-08-19T01:39:29;95778.44;;;20.34;83.33
31357;BME280;60001;48.404;11.738;2022-08-19T01:41:01;95771.19;;;20.34;83.55
31357;BME280;60001;48.404;11.738;2022-08-19T01:42:32;95772.41;;;20.37;83.68
31357;BME280;60001;48.404;11.738;2022-08-19T01:44:05;95769.63;;;20.33;83.37
31357;BME280;60001;48.404;11.738;2022-08-19T01:45:37;95766.59;;;20.35;83.84
31357;BME280;60001;48.404;11.738;2022-08-19T01:47:11;95762.81;;;20.36;83.54
31357;BME280;60001;48.404;11.738;2022-08-19T01:48:43;95764.72;;;20.35;83.49
31357;BME280;60001;48.404;11.738;2022-08-19T01:50:14;95758.56;;;20.35;83.04
31357;BME280;60001;48.404;11.738;2022-08-19T01:51:47;95761.25;;;20.35;83.54
31357;BME280;60001;48.404;11.738;2022-08-19T01:53:19;95766.94;;;20.33;82.92
31357;BME280;60001;48.404;11.738;2022-08-19T01:54:53;95764.25;;;20.33;83.08
31357;BME280;60001;48.404;11.738;2022-08-19T01:56:24;95766.16;;;20.33;84.01
31357;BME280;60001;48.404;11.738;2022-08-19T01:57:59;95771.84;;;20.31;83.86
31357;BME280;60001;48.404;11.738;2022-08-19T01:59:32;95774.53;;;20.31;83.54
31357;BME280;60001;48.404;11.738;2022-08-19T02:01:09;95777.22;;;20.31;83.54
31357;BME280;60001;48.404;11.738;2022-08-19T02:02:41;95782.59;;;20.31;84.17
31357;BME280;60001;48.404;11.738;2022-08-19T02:04:13;95782.59;;;20.31;84.05
31357;BME280;60001;48.404;11.738;2022-08-19T02:05:45;95786.81;;;20.32;83.46
31357;BME280;60001;48.404;11.738;2022-08-19T02:07:19;95789.97;;;20.34;84.21
31357;BME280;60001;48.404;11.738;2022-08-19T02:08:51;95800.69;;;20.34;84.07
31357;BME280;60001;48.404;11.738;2022-08-19T02:10:25;95789.63;;;20.36;83.62
31357;BME280;60001;48.404;11.738;2022-08-19T02:11:57;95795.31;;;20.34;83.89
31357;BME280;60001;48.404;11.738;2022-08-19T02:13:28;95794.22;;;20.35;83.72
31357;BME280;60001;48.404;11.738;2022-08-19T02:15:00;95790.41;;;20.36;83.79
31357;BME280;60001;48.404;11.738;2022-08-19T02:16:33;95771.63;;;20.36;83.84
31357;BME280;60001;48.404;11.738;2022-08-19T02:18:05;95763.59;;;20.36;83.62
31357;BME280;60001;48.404;11.738;2022-08-19T02:19:38;95755.56;;;20.36;83.44
31357;BME280;60001;48.404;11.738;2022-08-19T02:21:11;95770.53;;;20.37;84.15
31357;BME280;60001;48.404;11.738;2022-08-19T02:22:44;95769.75;;;20.37;83.84
31357;BME280;60001;48.404;11.738;2022-08-19T02:24:16;95777.78;;;20.37;83.82
31357;BME280;60001;48.404;11.738;2022-08-19T02:25:49;95785.03;;;20.36;83.70
31357;BME280;60001;48.404;11.738;2022-08-19T02:27:21;95786.63;;;20.37;83.59
31357;BME280;60001;48.404;11.738;2022-08-19T02:28:54;95787.44;;;20.38;83.55
31357;BME280;60001;48.404;11.738;2022-08-19T02:30:26;95792.47;;;20.39;83.55
31357;BME280;60001;48.404;11.738;2022-08-19T02:31:58;95795.91;;;20.40;84.05
31357;BME280;60001;48.404;11.738;2022-08-19T02:33:30;95792.13;;;20.41;84.25
31357;BME280;60001;48.404;11.738;2022-08-19T02:35:02;95787.22;;;20.43;83.89
31357;BME280;60001;48.404;11.738;2022-08-19T02:36:33;95789.09;;;20.42;84.27
31357;BME280;60001;48.404;11.738;2022-08-19T02:38:05;95792.56;;;20.43;84.42
31357;BME280;60001;48.404;11.738;2022-08-19T02:39:54;95789.88;;;20.43;83.64
31357;BME280;60001;48.404;11.738;2022-08-19T02:41:30;95801.41;;;20.43;83.63
31357;BME280;60001;48.404;11.738;2022-08-19T02:43:03;95801.91;;;20.45;83.66
31357;BME280;60001;48.404;11.738;2022-08-19T02:44:37;95797.31;;;20.46;83.37
31357;BME280;60001;48.404;11.738;2022-08-19T02:46:14;95798.72;;;20.43;83.47
31357;BME280;60001;48.404;11.738;2022-08-19T02:47:48;95804.59;;;20.45;83.46
31357;BME280;60001;48.404;11.738;2022-08-19T02:49:19;95819.09;;;20.44;83.26
31357;BME280;60001;48.404;11.738;2022-08-19T02:50:52;95811.84;;;20.45;83.26
31357;BME280;60001;48.404;11.738;2022-08-19T02:52:25;95803.00;;;20.44;83.07
31357;BME280;60001;48.404;11.738;2022-08-19T02:53:57;95800.31;;;20.44;83.45
31357;BME280;60001;48.404;11.738;2022-08-19T02:55:30;95783.75;;;20.42;83.67
31357;BME280;60001;48.404;11.738;2022-08-19T02:57:02;95788.78;;;20.44;83.82
31357;BME280;60001;48.404;11.738;2022-08-19T02:58:34;95779.16;;;20.43;83.97
31357;BME280;60001;48.404;11.738;2022-08-19T03:00:06;95774.91;;;20.42;83.49
31357;BME280;60001;48.404;11.738;2022-08-19T03:01:41;95777.25;;;20.43;83.82
31357;BME280;60001;48.404;11.738;2022-08-19T03:03:12;95773.34;;;20.41;83.31
31357;BME280;60001;48.404;11.738;2022-08-19T03:04:44;95769.88;;;20.40;83.75
31357;BME280;60001;48.404;11.738;2022-08-19T03:06:16;95767.19;;;20.40;83.49
31357;BME280;60001;48.404;11.738;2022-08-19T03:07:48;95758.72;;;20.38;83.85
31357;BME280;60001;48.404;11.738;2022-08-19T03:09:20;95764.06;;;20.38;83.50
31357;BME280;60001;48.404;11.738;2022-08-19T03:10:51;95756.34;;;20.37;83.64
31357;BME280;60001;48.404;11.738;2022-08-19T03:12:25;95765.97;;;20.38;84.27
31357;BME280;60001;48.404;11.738;2022-08-19T03:13:57;95754.50;;;20.29;83.62
31357;BME280;60001;48.404;11.738;2022-08-19T03:15:30;95761.69;;;20.37;83.75
31357;BME280;60001;48.404;11.738;2022-08-19T03:17:02;95759.78;;;20.37;83.45
31357;BME280;60001;48.404;11.738;2022-08-19T03:18:34;95762.47;;;20.37;83.81
31357;BME280;60001;48.404;11.738;2022-08-19T03:20:07;95757.13;;;20.37;84.18
31357;BME280;60001;48.404;11.738;2022-08-19T03:21:38;95757.44;;;20.36;83.63
31357;BME280;60001;48.404;11.738;2022-08-19T03:23:11;95760.13;;;20.36;83.92
31357;BME280;60001;48.404;11.738;2022-08-19T03:24:44;95760.13;;;20.36;83.71
31357;BME280;60001;48.404;11.738;2022-08-19T03:26:15;95767.41;;;20.35;84.20
31357;BME280;60001;48.404;11.738;2022-08-19T03:27:48;95770.06;;;20.35;84.42
31357;BME280;60001;48.404;11.738;2022-08-19T03:29:20;95777.34;;;20.35;84.33
31357;BME280;60001;48.404;11.738;2022-08-19T03:30:57;95776.56;;;20.34;84.11
31357;BME280;60001;48.404;11.738;2022-08-19T03:32:28;95774.97;;;20.33;84.64
31357;BME280;60001;48.404;11.738;2022-08-19T03:34:00;95774.97;;;20.33;84.60
31357;BME280;60001;48.404;11.738;2022-08-19T03:35:31;95775.78;;;20.34;84.96
31357;BME280;60001;48.404;11.738;2022-08-19T03:37:06;95781.91;;;20.34;84.63
31357;BME280;60001;48.404;11.738;2022-08-19T03:38:40;95784.59;;;20.34;85.02
31357;BME280;60001;48.404;11.738;2022-08-19T03:40:13;95792.31;;;20.36;84.79
31357;BME280;60001;48.404;11.738;2022-08-19T03:41:47;95782.69;;;20.35;85.13
31357;BME280;60001;48.404;11.738;2022-08-19T03:43:20;95782.38;;;20.36;85.10
31357;BME280;60001;48.404;11.738;2022-08-19T03:44:52;95786.63;;;20.37;84.65
31357;BME280;60001;48.404;11.738;2022-08-19T03:46:27;95787.09;;;20.39;84.84
31357;BME280;60001;48.404;11.738;2022-08-19T03:47:58;95781.25;;;20.37;84.58
31357;BME280;60001;48.404;11.738;2022-08-19T03:49:32;95784.75;;;20.38;84.89
31357;BME280;60001;48.404;11.738;2022-08-19T03:51:16;95780.94;;;20.39;84.61
31357;BME280;60001;48.404;11.738;2022-08-19T03:52:49;95779.03;;;20.39;84.61
31357;BME280;60001;48.404;11.738;2022-08-19T03:54:23;95788.22;;;20.38;84.64
31357;BME280;60001;48.404;11.738;2022-08-19T03:55:56;95790.41;;;20.36;84.82
31357;BME280;60001;48.404;11.738;2022-08-19T03:57:30;95795.78;;;20.36;84.65
31357;BME280;60001;48.404;11.738;2022-08-19T03:59:07;95790.75;;;20.35;84.93
31357;BME280;60001;48.404;11.738;2022-08-19T04:00:42;95791.53;;;20.35;84.39
31357;BME280;60001;48.404;11.738;2022-08-19T04:02:13;95793.09;;;20.36;85.25
31357;BME280;60001;48.404;11.738;2022-08-19T04:03:46;95786.63;;;20.37;84.42
31357;BME280;60001;48.404;11.738;2022-08-19T04:05:18;95785.81;;;20.37;85.08
31357;BME280;60001;48.404;11.738;2022-08-19T04:06:51;95788.84;;;20.35;84.55
31357;BME280;60001;48.404;11.738;2022-08-19T04:08:23;95789.28;;;20.37;84.94
31357;BME280;60001;48.404;11.738;2022-08-19T04:09:55;95795.00;;;20.36;84.98
31357;BME280;60001;48.404;11.738;2022-08-19T04:11:29;95790.28;;;20.33;84.56
31357;BME280;60001;48.404;11.738;2022-08-19T04:13:00;95795.00;;;20.36;84.61
31357;BME280;60001;48.404;11.738;2022-08-19T04:14:35;95793.41;;;20.35;84.44
31357;BME280;60001;48.404;11.738;2022-08-19T04:16:11;95792.31;;;20.36;84.58
31357;BME280;60001;48.404;11.738;2022-08-19T04:17:43;95787.72;;;20.36;84.74
31357;BME280;60001;48.404;11.738;2022-08-19T04:19:17;95788.50;;;20.37;84.61
31357;BME280;60001;48.404;11.738;2022-08-19T04:20:49;95777.00;;;20.36;84.59
31357;BME280;60001;48.404;11.738;2022-08-19T04:22:21;95773.53;;;20.36;85.08
31357;BME280;60001;48.404;11.738;2022-08-19T04:23:53;95776.22;;;20.36;84.43
31357;BME280;60001;48.404;11.738;2022-08-19T04:25:25;95775.44;;;20.35;84.45
31357;BME280;60001;48.404;11.738;2022-08-19T04:26:59;95777.34;;;20.35;84.44
31357;BME280;60001;48.404;11.738;2022-08-19T04:28:29;95783.81;;;20.34;84.30
31357;BME280;60001;48.404;11.738;2022-08-19T04:30:04;95788.06;;;20.35;84.55
31357;BME280;60001;48.404;11.738;2022-08-19T04:31:36;95802.91;;;20.32;84.99
31357;BME280;60001;48.404;11.738;2022-08-19T04:33:07;95799.91;;;20.34;84.73
31357;BME280;60001;48.404;11.738;2022-08-19T04:34:39;95788.84;;;20.35;85.20
31357;BME280;60001;48.404;11.738;2022-08-19T04:36:16;95787.72;;;20.36;85.12
31357;BME280;60001;48.404;11.738;2022-08-19T04:37:47;95785.53;;;20.38;84.76
31357;BME280;60001;48.404;11.738;2022-08-19T04:39:23;95781.72;;;20.39;85.15
31357;BME280;60001;48.404;11.738;2022-08-19T04:41:16;95781.72;;;20.39;84.35
31357;BME280;60001;48.404;11.738;2022-08-19T04:43:05;95784.41;;;20.39;84.58
31357;BME280;60001;48.404;11.738;2022-08-19T04:44:36;95794.03;;;20.40;84.54
31357;BME280;60001;48.404;11.738;2022-08-19T04:46:11;95799.72;;;20.39;84.77
31357;BME280;60001;48.404;11.738;2022-08-19T04:47:44;95797.81;;;20.39;84.21
31357;BME280;60001;48.404;11.738;2022-08-19T04:49:17;95812.00;;;20.40;84.53
31357;BME280;60001;48.404;11.738;2022-08-19T04:50:49;95817.03;;;20.41;84.71
31357;BME280;60001;48.404;11.738;2022-08-19T04:52:21;95820.50;;;20.42;84.58
31357;BME280;60001;48.404;11.738;2022-08-19T04:53:53;95820.50;;;20.42;84.48
31357;BME280;60001;48.404;11.738;2022-08-19T04:55:24;95822.41;;;20.41;84.35
31357;BME280;60001;48.404;11.738;2022-08-19T04:56:56;95827.75;;;20.41;85.06
31357;BME280;60001;48.404;11.738;2022-08-19T04:58:29;95837.38;;;20.42;85.02
31357;BME280;60001;48.404;11.738;2022-08-19T05:00:01;95829.34;;;20.42;84.87
31357;BME280;60001;48.404;11.738;2022-08-19T05:01:34;95832.00;;;20.42;84.75
31357;BME280;60001;48.404;11.738;2022-08-19T05:03:07;95832.78;;;20.43;84.54
31357;BME280;60001;48.404;11.738;2022-08-19T05:04:39;95819.38;;;20.43;84.43
31357;BME280;60001;48.404;11.738;2022-08-19T05:06:14;95834.09;;;20.45;84.23
31357;BME280;60001;48.404;11.738;2022-08-19T05:07:46;95831.41;;;20.45;84.78
31357;BME280;60001;48.404;11.738;2022-08-19T05:09:18;95838.34;;;20.46;84.24
31357;BME280;60001;48.404;11.738;2022-08-19T05:10:51;95838.66;;;20.45;84.20
31357;BME280;60001;48.404;11.738;2022-08-19T05:12:23;95833.75;;;20.47;84.46
31357;BME280;60001;48.404;11.738;2022-08-19T05:13:56;95839.13;;;20.47;84.33
31357;BME280;60001;48.404;11.738;2022-08-19T05:15:28;95841.91;;;20.50;84.24
31357;BME280;60001;48.404;11.738;2022-08-19T05:17:02;95840.84;;;20.51;84.06
31357;BME280;60001;48.404;11.738;2022-08-19T05:18:33;95834.66;;;20.51;83.94
31357;BME280;60001;48.404;11.738;2022-08-19T05:20:23;95842.41;;;20.52;84.14
31357;BME280;60001;48.404;11.738;2022-08-19T05:22:08;95850.75;;;20.51;84.49
31357;BME280;60001;48.404;11.738;2022-08-19T05:23:57;95840.84;;;20.51;84.18
31357;BME280;60001;48.404;11.738;2022-08-19T05:25:29;95848.22;;;20.55;84.39
31357;BME280;60001;48.404;11.738;2022-08-19T05:27:02;95850.91;;;20.55;83.87
31357;BME280;60001;48.404;11.738;2022-08-19T05:28:36;95851.34;;;20.57;83.72
31357;BME280;60001;48.404;11.738;2022-08-19T05:30:08;95845.19;;;20.56;83.77
31357;BME280;60001;48.404;11.738;2022-08-19T05:31:41;95838.72;;;20.57;84.26
31357;BME280;60001;48.404;11.738;2022-08-19T05:33:14;95847.25;;;20.59;84.14
31357;BME280;60001;48.404;11.738;2022-08-19T05:34:46;95845.34;;;20.60;84.52
31357;BME280;60001;48.404;11.738;2022-08-19T05:36:18;95854.19;;;20.60;83.58
31357;BME280;60001;48.404;11.738;2022-08-19T05:37:50;95848.81;;;20.60;83.94
31357;BME280;60001;48.404;11.738;2022-08-19T05:39:26;95837.16;;;20.56;83.88
31357;BME280;60001;48.404;11.738;2022-08-19T05:40:58;95852.72;;;20.63;83.75
31357;BME280;60001;48.404;11.738;2022-08-19T05:42:31;95842.00;;;20.63;83.61
31357;BME280;60001;48.404;11.738;2022-08-19T05:44:05;95838.97;;;20.64;84.16
31357;BME280;60001;48.404;11.738;2022-08-19T05:45:41;95833.31;;;20.66;83.65
31357;BME280;60001;48.404;11.738;2022-08-19T05:47:13;95831.28;;;20.63;83.32
31357;BME280;60001;48.404;11.738;2022-08-19T05:48:47;95830.16;;;20.64;83.11
31357;BME280;60001;48.404;11.738;2022-08-19T05:50:20;95836.00;;;20.66;83.24
31357;BME280;60001;48.404;11.738;2022-08-19T05:51:53;95830.63;;;20.66;83.29
31357;BME280;60001;48.404;11.738;2022-08-19T05:53:25;95836.00;;;20.66;83.10
31357;BME280;60001;48.404;11.738;2022-08-19T05:54:57;95822.59;;;20.66;83.50
31357;BME280;60001;48.404;11.738;2022-08-19T05:56:29;95826.06;;;20.66;83.13
31357;BME280;60001;48.404;11.738;2022-08-19T05:58:01;95831.41;;;20.66;83.11
31357;BME280;60001;48.404;11.738;2022-08-19T05:59:33;95823.38;;;20.66;83.21
31357;BME280;60001;48.404;11.738;2022-08-19T06:01:10;95826.06;;;20.66;83.39
31357;BME280;60001;48.404;11.738;2022-08-19T06:02:42;95826.34;;;20.65;83.42
31357;BME280;60001;48.404;11.738;2022-08-19T06:04:17;95826.34;;;20.65;83.11
31357;BME280;60001;48.404;11.738;2022-08-19T06:05:49;95825.28;;;20.66;83.04
31357;BME280;60001;48.404;11.738;2022-08-19T06:07:22;95827.13;;;20.65;82.96
31357;BME280;60001;48.404;11.738;2022-08-19T06:08:53;95819.44;;;20.64;83.47
31357;BME280;60001;48.404;11.738;2022-08-19T06:10:25;95823.69;;;20.65;83.65
31357;BME280;60001;48.404;11.738;2022-08-19T06:11:58;95824.00;;;20.63;83.18
31357;BME280;60001;48.404;11.738;2022-08-19T06:13:32;95822.09;;;20.64;83.57
31357;BME280;60001;48.404;11.738;2022-08-19T06:15:07;95822.09;;;20.64;83.23
31357;BME280;60001;48.404;11.738;2022-08-19T06:16:40;95828.91;;;20.61;83.15
31357;BME280;60001;48.404;11.738;2022-08-19T06:18:13;95825.47;;;20.61;83.19
31357;BME280;60001;48.404;11.738;2022-08-19T06:19:45;95831.94;;;20.60;83.21
31357;BME280;60001;48.404;11.738;2022-08-19T06:21:18;95831.47;;;20.58;82.76
31357;BME280;60001;48.404;11.738;2022-08-19T06:22:49;95834.81;;;20.55;83.64
31357;BME280;60001;48.404;11.738;2022-08-19T06:24:24;95842.84;;;20.55;83.56
31357;BME280;60001;48.404;11.738;2022-08-19T06:25:56;95841.28;;;20.53;83.61
31357;BME280;60001;48.404;11.738;2022-08-19T06:27:28;95846.66;;;20.53;84.11
31357;BME280;60001;48.404;11.738;2022-08-19T06:29:02;95850.75;;;20.51;83.16
31357;BME280;60001;48.404;11.738;2022-08-19T06:30:36;95849.97;;;20.50;83.69
31357;BME280;60001;48.404;11.738;2022-08-19T06:32:08;95855.66;;;20.49;83.59
31357;BME280;60001;48.404;11.738;2022-08-19T06:33:42;95856.78;;;20.48;83.50
31357;BME280;60001;48.404;11.738;2022-08-19T06:35:17;95857.56;;;20.48;83.40
31357;BME280;60001;48.404;11.738;2022-08-19T06:36:51;95866.41;;;20.49;83.68
31357;BME280;60001;48.404;11.738;2022-08-19T06:38:23;95868.28;;;20.48;84.02
31357;BME280;60001;48.404;11.738;2022-08-19T06:39:54;95859.91;;;20.50;84.11
31357;BME280;60001;48.404;11.738;2022-08-19T06:41:26;95856.13;;;20.51;83.64
31357;BME280;60001;48.404;11.738;2022-08-19T06:42:57;95858.00;;;20.50;83.66
31357;BME280;60001;48.404;11.738;2022-08-19T06:44:32;95853.13;;;20.52;83.61
31357;BME280;60001;48.404;11.738;2022-08-19T06:46:10;95848.56;;;20.53;83.77
31357;BME280;60001;48.404;11.738;2022-08-19T06:47:42;95848.56;;;20.53;83.87
31357;BME280;60001;48.404;11.738;2022-08-19T06:49:18;95845.09;;;20.52;83.93
31357;BME280;60001;48.404;11.738;2022-08-19T06:50:51;95840.50;;;20.53;83.87
31357;BME280;60001;48.404;11.738;2022-08-19T06:52:23;95845.53;;;20.55;83.70
31357;BME280;60001;48.404;11.738;2022-08-19T06:53:55;95834.53;;;20.47;84.12
31357;BME280;60001;48.404;11.738;2022-08-19T06:55:27;95843.97;;;20.53;84.47
31357;BME280;60001;48.404;11.738;2022-08-19T06:57:01;95846.31;;;20.55;84.67
31357;BME280;60001;48.404;11.738;2022-08-19T06:58:33;95845.53;;;20.55;84.70
31357;BME280;60001;48.404;11.738;2022-08-19T07:00:06;95849.78;;;20.56;84.98
31357;BME280;60001;48.404;11.738;2022-08-19T07:01:42;95850.56;;;20.56;85.27
31357;BME280;60001;48.404;11.738;2022-08-19T07:03:16;95850.56;;;20.56;85.12
31357;BME280;60001;48.404;11.738;2022-08-19T07:04:47;95856.72;;;20.57;85.96
31357;BME280;60001;48.404;11.738;2022-08-19T07:06:20;95849.78;;;20.56;86.03
31357;BME280;60001;48.404;11.738;2022-08-19T07:07:52;95850.91;;;20.55;86.57
31357;BME280;60001;48.404;11.738;2022-08-19T07:09:24;95850.56;;;20.56;86.27
31357;BME280;60001;48.404;11.738;2022-08-19T07:10:56;95852.47;;;20.56;86.75
31357;BME280;60001;48.404;11.738;2022-08-19T07:12:28;95851.34;;;20.57;86.86
31357;BME280;60001;48.404;11.738;2022-08-19T07:14:01;95852.13;;;20.57;87.09
31357;BME280;60001;48.404;11.738;2022-08-19T07:15:36;95846.00;;;20.57;87.04
31357;BME280;60001;48.404;11.738;2022-08-19T07:17:11;95859.41;;;20.57;87.20
31357;BME280;60001;48.404;11.738;2022-08-19T07:18:43;95852.47;;;20.56;87.22
31357;BME280;60001;48.404;11.738;2022-08-19T07:20:15;95855.59;;;20.58;87.18
31357;BME280;60001;48.404;11.738;2022-08-19T07:21:50;95850.22;;;20.58;87.53
31357;BME280;60001;48.404;11.738;2022-08-19T07:23:23;95854.81;;;20.57;87.54
31357;BME280;60001;48.404;11.738;2022-08-19T07:24:55;95850.72;;;20.60;87.11
31357;BME280;60001;48.404;11.738;2022-08-19T07:26:30;95852.28;;;20.61;87.17
31357;BME280;60001;48.404;11.738;2022-08-19T07:28:02;95844.69;;;20.63;87.89
31357;BME280;60001;48.404;11.738;2022-08-19T07:29:35;95848.16;;;20.63;87.88
31357;BME280;60001;48.404;11.738;2022-08-19T07:31:11;95842.44;;;20.65;87.85
31357;BME280;60001;48.404;11.738;2022-08-19T07:32:43;95840.03;;;20.72;88.18
31357;BME280;60001;48.404;11.738;2022-08-19T07:34:16;95839.06;;;20.76;87.53
31357;BME280;60001;48.404;11.738;2022-08-19T07:35:48;95836.53;;;20.80;87.94
31357;BME280;60001;48.404;11.738;2022-08-19T07:37:21;95838.53;;;20.83;87.38
31357;BME280;60001;48.404;11.738;2022-08-19T07:38:54;95830.63;;;20.87;87.36
31357;BME280;60001;48.404;11.738;2022-08-19T07:40:26;95826.50;;;20.89;87.04
31357;BME280;60001;48.404;11.738;2022-08-19T07:42:00;95829.28;;;20.93;87.47
31357;BME280;60001;48.404;11.738;2022-08-19T07:43:32;95820.78;;;20.91;87.21
31357;BME280;60001;48.404;11.738;2022-08-19T07:45:05;95824.72;;;20.93;86.63
31357;BME280;60001;48.404;11.738;2022-08-19T07:46:39;95827.09;;;20.95;86.06
31357;BME280;60001;48.404;11.738;2022-08-19T07:48:12;95826.28;;;20.94;86.39
31357;BME280;60001;48.404;11.738;2022-08-19T07:49:44;95819.38;;;20.93;85.85
31357;BME280;60001;48.404;11.738;2022-08-19T07:51:20;95828.66;;;20.96;85.99
31357;BME280;60001;48.404;11.738;2022-08-19T07:52:53;95826.06;;;20.99;85.80
31357;BME280;60001;48.404;11.738;2022-08-19T07:54:27;95823.09;;;21.01;86.13
31357;BME280;60001;48.404;11.738;2022-08-19T07:55:59;95820.41;;;21.01;86.71
31357;BME280;60001;48.404;11.738;2022-08-19T07:57:34;95823.88;;;21.01;86.05
31357;BME280;60001;48.404;11.738;2022-08-19T07:59:06;95825.78;;;21.01;85.91
31357;BME280;60001;48.404;11.738;2022-08-19T08:00:39;95821.19;;;21.01;86.32
31357;BME280;60001;48.404;11.738;2022-08-19T08:02:11;95819.63;;;21.00;86.51
31357;BME280;60001;48.404;11.738;2022-08-19T08:03:44;95822.75;;;21.02;86.51
31357;BME280;60001;48.404;11.738;2022-08-19T08:05:34;95820.84;;;21.03;86.26
31357;BME280;60001;48.404;11.738;2022-08-19T08:07:23;95816.25;;;21.03;86.30
31357;BME280;60001;48.404;11.738;2022-08-19T08:09:29;95822.06;;;21.05;86.27